Time;durP1;ratioP1;P1;durP2;ratioP2;P2;SDS_P1;SDS_P2;PMS_P1;PMS_P2;Temp;Humidity;BMP_temperature;BMP_pressure;BME280_temperature;BME280_humidity;BME280_pressure;Samples;Min_cycle;Max_cycle;Signal;HPM_P1;HPM_P2
2022/08/15 00:01:07;;;;;;;;;;;22.00;71.30;;;;;;5004724;28;19949;-82
2022/08/15 00:03:39;;;;;;;;;;;21.90;71.00;;;;;;5029189;28;19925;-83
2022/08/15 00:06:32;;;;;;;;;;;21.90;71.60;;;;;;4992245;28;20391;-86
2022/08/15 00:09:10;;;;;;;;;;;21.80;71.30;;;;;;5013779;28;19936;-86
2022/08/15 00:11:39;;;;;;;;;;;21.70;73.20;;;;;;4977650;28;19933;-84
2022/08/15 00:14:11;;;;;;;;;;;21.50;72.20;;;;;;4989223;28;20403;-83
2022/08/15 00:16:48;;;;;;;;;;;21.50;72.70;;;;;;5016084;28;20309;-86
2022/08/15 00:19:18;;;;;;;;;;;21.40;73.70;;;;;;5000184;28;20131;-86
2022/08/15 00:21:52;;;;;;;;;;;21.40;73.90;;;;;;5005331;28;19929;-84
2022/08/15 00:24:21;;;;;;;;;;;21.30;73.20;;;;;;5021618;28;19930;-85
2022/08/15 00:26:57;;;;;;;;;;;21.20;73.60;;;;;;5024574;28;19929;-84
2022/08/15 00:29:26;;;;;;;;;;;21.20;73.70;;;;;;5001886;28;19941;-86
2022/08/15 00:32:06;;;;;;;;;;;21.20;74.00;;;;;;4998929;28;19926;-86
2022/08/15 00:34:54;;;;;;;;;;;21.10;73.90;;;;;;5007446;28;19937;-86
2022/08/15 00:37:21;;;;;;;;;;;21.00;74.80;;;;;;5006586;28;19956;-85
2022/08/15 00:39:49;;;;;;;;;;;20.80;74.10;;;;;;5000715;28;19925;-84
2022/08/15 00:42:24;;;;;;;;;;;20.90;74.20;;;;;;4997103;28;19929;-86
2022/08/15 00:44:58;;;;;;;;;;;20.90;74.50;;;;;;5011930;28;19933;-85
2022/08/15 00:47:40;;;;;;;;;;;20.90;74.30;;;;;;5004332;28;19932;-84
2022/08/15 00:50:11;;;;;;;;;;;20.90;74.40;;;;;;4978944;28;19926;-83
2022/08/15 00:53:00;;;;;;;;;;;20.90;74.30;;;;;;4995407;28;19925;-84
2022/08/15 00:55:28;;;;;;;;;;;20.90;74.50;;;;;;4962603;28;19925;-84
2022/08/15 00:57:59;;;;;;;;;;;20.90;74.30;;;;;;5026222;28;19929;-83
2022/08/15 01:00:33;;;;;;;;;;;20.90;74.20;;;;;;5020340;28;19929;-84
2022/08/15 01:03:10;;;;;;;;;;;20.90;74.50;;;;;;5006507;28;19925;-85
2022/08/15 01:05:45;;;;;;;;;;;20.90;73.60;;;;;;5008260;28;19932;-83
2022/08/15 01:08:16;;;;;;;;;;;20.90;73.70;;;;;;4979438;28;20264;-83
2022/08/15 01:10:47;;;;;;;;;;;20.90;73.70;;;;;;4978532;28;19933;-83
2022/08/15 01:13:29;;;;;;;;;;;20.90;73.60;;;;;;5032802;28;20297;-84
2022/08/15 01:16:18;;;;;;;;;;;20.90;73.90;;;;;;5010703;28;19929;-86
2022/08/15 01:19:03;;;;;;;;;;;20.90;73.90;;;;;;5010874;28;19926;-87
2022/08/15 01:21:36;;;;;;;;;;;20.90;73.90;;;;;;5009859;28;19925;-83
2022/08/15 01:24:22;;;;;;;;;;;20.90;74.30;;;;;;5025600;28;20281;-83
2022/08/15 01:26:51;;;;;;;;;;;20.90;73.90;;;;;;4983540;28;19929;-84
2022/08/15 01:29:21;;;;;;;;;;;20.80;73.90;;;;;;4994770;28;20039;-83
2022/08/15 01:31:51;;;;;;;;;;;20.80;73.50;;;;;;4994131;28;19937;-86
2022/08/15 01:34:18;;;;;;;;;;;20.80;73.40;;;;;;4994662;28;19925;-85
2022/08/15 01:36:48;;;;;;;;;;;20.90;73.40;;;;;;4990647;28;20329;-84
2022/08/15 01:39:38;;;;;;;;;;;20.90;73.30;;;;;;5003357;28;19936;-83
2022/08/15 01:42:08;;;;;;;;;;;20.90;72.90;;;;;;4996668;28;20385;-83
2022/08/15 01:44:40;;;;;;;;;;;20.90;72.70;;;;;;4990140;28;19929;-85
2022/08/15 01:47:25;;;;;;;;;;;21.00;72.60;;;;;;4988252;28;19925;-82
2022/08/15 01:50:00;;;;;;;;;;;21.00;72.50;;;;;;4998829;28;19932;-86
2022/08/15 01:52:34;;;;;;;;;;;21.10;71.90;;;;;;4996129;28;19930;-84
2022/08/15 01:55:26;;;;;;;;;;;21.10;72.00;;;;;;4982213;28;19933;-84
2022/08/15 01:58:03;;;;;;;;;;;21.30;72.40;;;;;;4975572;28;20333;-84
2022/08/15 02:00:35;;;;;;;;;;;21.10;71.60;;;;;;5023306;28;19925;-84
2022/08/15 02:03:09;;;;;;;;;;;21.10;71.40;;;;;;4976820;28;19933;-86
2022/08/15 02:05:38;;;;;;;;;;;21.10;71.90;;;;;;4976114;28;19929;-86
2022/08/15 02:08:06;;;;;;;;;;;21.10;71.60;;;;;;4998673;28;19926;-83
2022/08/15 02:10:53;;;;;;;;;;;21.20;71.60;;;;;;5011125;28;20301;-87
2022/08/15 02:13:21;;;;;;;;;;;21.10;71.40;;;;;;5014249;28;19932;-86
2022/08/15 02:15:52;;;;;;;;;;;21.20;71.90;;;;;;4997153;28;19935;-86
2022/08/15 02:18:20;;;;;;;;;;;21.10;71.40;;;;;;5013709;28;19925;-83
2022/08/15 02:20:52;;;;;;;;;;;21.10;71.50;;;;;;5003354;28;19925;-86
2022/08/15 02:23:19;;;;;;;;;;;21.10;71.60;;;;;;5010727;28;19944;-82
2022/08/15 02:25:50;;;;;;;;;;;21.10;71.80;;;;;;4995719;28;19933;-84
2022/08/15 02:28:22;;;;;;;;;;;21.10;71.60;;;;;;4986412;28;19925;-83
2022/08/15 02:31:10;;;;;;;;;;;21.10;71.60;;;;;;5029467;28;19933;-86
2022/08/15 02:33:41;;;;;;;;;;;21.10;72.30;;;;;;5025429;28;19926;-85
2022/08/15 02:36:13;;;;;;;;;;;21.10;71.80;;;;;;4961912;28;19930;-84
2022/08/15 02:39:00;;;;;;;;;;;21.20;72.00;;;;;;5016157;28;20428;-84
2022/08/15 02:41:32;;;;;;;;;;;21.00;72.10;;;;;;4986994;28;19933;-82
2022/08/15 02:44:11;;;;;;;;;;;21.00;72.40;;;;;;5003843;28;19929;-84
2022/08/15 02:46:49;;;;;;;;;;;21.10;72.40;;;;;;4980532;28;19929;-84
2022/08/15 02:49:31;;;;;;;;;;;21.00;72.00;;;;;;5000734;28;19948;-84
2022/08/15 02:52:18;;;;;;;;;;;21.00;72.10;;;;;;4978970;28;19930;-85
2022/08/15 02:54:50;;;;;;;;;;;21.00;71.90;;;;;;5018525;28;19926;-82
2022/08/15 02:57:32;;;;;;;;;;;21.00;71.80;;;;;;4979527;28;19925;-84
2022/08/15 03:00:21;;;;;;;;;;;21.00;71.90;;;;;;4982930;28;20308;-84
2022/08/15 03:02:56;;;;;;;;;;;20.90;71.90;;;;;;4979988;28;19937;-84
2022/08/15 03:05:27;;;;;;;;;;;20.90;72.20;;;;;;5027323;28;19925;-84
2022/08/15 03:07:55;;;;;;;;;;;20.90;72.20;;;;;;4993908;28;19925;-83
2022/08/15 03:10:24;;;;;;;;;;;20.90;72.50;;;;;;4993935;28;19936;-83
2022/08/15 03:12:58;;;;;;;;;;;20.90;72.80;;;;;;4993844;28;19940;-84
2022/08/15 03:15:31;;;;;;;;;;;20.80;72.70;;;;;;5010734;28;20305;-83
2022/08/15 03:18:01;;;;;;;;;;;20.80;72.60;;;;;;4991393;28;20411;-85
2022/08/15 03:20:30;;;;;;;;;;;20.80;72.00;;;;;;4992164;28;19925;-84
2022/08/15 03:22:59;;;;;;;;;;;20.80;72.00;;;;;;4992127;28;20317;-82
2022/08/15 03:25:32;;;;;;;;;;;20.80;72.10;;;;;;4998370;28;19929;-85
2022/08/15 03:28:20;;;;;;;;;;;20.80;72.30;;;;;;5024369;28;19925;-84
2022/08/15 03:31:02;;;;;;;;;;;20.80;72.20;;;;;;5028289;28;19960;-85
2022/08/15 03:33:31;;;;;;;;;;;20.80;72.60;;;;;;4983777;28;20700;-83
2022/08/15 03:36:20;;;;;;;;;;;20.80;72.00;;;;;;5015944;28;20076;-83
2022/08/15 03:38:50;;;;;;;;;;;20.80;72.40;;;;;;5004614;28;19933;-84
2022/08/15 03:41:25;;;;;;;;;;;20.80;72.50;;;;;;5020156;28;19932;-83
2022/08/15 03:43:53;;;;;;;;;;;20.80;72.40;;;;;;4986859;28;20501;-86
2022/08/15 03:46:23;;;;;;;;;;;20.80;72.20;;;;;;5009242;28;19936;-85
2022/08/15 03:48:53;;;;;;;;;;;20.80;72.40;;;;;;4991879;28;19940;-83
2022/08/15 03:51:26;;;;;;;;;;;20.70;72.30;;;;;;5001277;28;19932;-83
2022/08/15 03:54:02;;;;;;;;;;;20.80;71.70;;;;;;5033765;28;19929;-86
2022/08/15 03:56:33;;;;;;;;;;;20.80;71.00;;;;;;5004036;28;20373;-84
2022/08/15 03:59:06;;;;;;;;;;;20.80;70.70;;;;;;5006677;28;19940;-83
2022/08/15 04:01:49;;;;;;;;;;;20.80;70.60;;;;;;4994330;28;19929;-85
2022/08/15 04:04:23;;;;;;;;;;;20.80;70.40;;;;;;4981370;28;19926;-87
2022/08/15 04:06:52;;;;;;;;;;;20.80;70.10;;;;;;5001471;28;19937;-85
2022/08/15 04:09:35;;;;;;;;;;;20.80;70.00;;;;;;5035302;28;19940;-84
2022/08/15 04:12:12;;;;;;;;;;;20.90;70.10;;;;;;5001338;28;19945;-85
2022/08/15 04:14:53;;;;;;;;;;;20.90;70.10;;;;;;4987974;28;19925;-85
2022/08/15 04:17:21;;;;;;;;;;;20.90;70.10;;;;;;5013645;28;19925;-85
2022/08/15 04:20:10;;;;;;;;;;;20.90;70.10;;;;;;4997365;28;19926;-85
2022/08/15 04:23:03;;;;;;;;;;;20.90;70.20;;;;;;4965198;28;20068;-85
2022/08/15 04:25:34;;;;;;;;;;;20.80;70.20;;;;;;5018379;28;19925;-85
2022/08/15 04:28:14;;;;;;;;;;;20.80;70.80;;;;;;4972734;28;19933;-84
2022/08/15 04:31:04;;;;;;;;;;;20.80;70.70;;;;;;5008612;28;19929;-84
2022/08/15 04:33:34;;;;;;;;;;;20.80;71.10;;;;;;4978948;28;20093;-85
2022/08/15 04:36:23;;;;;;;;;;;21.10;71.90;;;;;;4968442;28;19929;-87
2022/08/15 04:39:00;;;;;;;;;;;20.70;72.00;;;;;;5001278;28;19926;-82
2022/08/15 04:41:33;;;;;;;;;;;20.70;72.40;;;;;;4980011;28;19940;-83
2022/08/15 04:44:07;;;;;;;;;;;20.60;72.20;;;;;;5040002;28;19929;-83
2022/08/15 04:46:45;;;;;;;;;;;20.60;72.30;;;;;;5017251;28;19925;-84
2022/08/15 04:49:13;;;;;;;;;;;20.50;72.30;;;;;;4987255;28;19933;-87
2022/08/15 04:51:44;;;;;;;;;;;20.70;72.60;;;;;;5009689;28;19929;-85
2022/08/15 04:54:13;;;;;;;;;;;20.60;72.90;;;;;;5008748;28;19930;-84
2022/08/15 04:56:46;;;;;;;;;;;20.60;73.20;;;;;;5006316;28;19929;-86
2022/08/15 04:59:22;;;;;;;;;;;20.50;73.10;;;;;;4992124;28;19937;-84
2022/08/15 05:02:22;;;;;;;;;;;20.50;73.20;;;;;;5007272;28;19940;-83
2022/08/15 05:05:10;;;;;;;;;;;20.50;73.40;;;;;;4996428;28;19940;-85
2022/08/15 05:07:37;;;;;;;;;;;20.50;74.10;;;;;;5014951;28;19925;-84
2022/08/15 05:10:26;;;;;;;;;;;20.40;74.10;;;;;;5030060;28;20262;-83
2022/08/15 05:13:19;;;;;;;;;;;20.40;75.00;;;;;;4996908;28;19933;-83
2022/08/15 05:15:48;;;;;;;;;;;20.40;75.00;;;;;;4977989;28;19936;-85
2022/08/15 05:18:25;;;;;;;;;;;20.40;76.20;;;;;;4982973;28;19926;-85
2022/08/15 05:20:55;;;;;;;;;;;20.40;77.40;;;;;;4998142;28;19925;-85
2022/08/15 05:23:27;;;;;;;;;;;20.40;77.60;;;;;;5000130;28;19937;-85
2022/08/15 05:26:13;;;;;;;;;;;20.40;79.80;;;;;;5033489;28;20316;-84
2022/08/15 05:29:01;;;;;;;;;;;20.50;80.00;;;;;;4993980;28;20021;-82
2022/08/15 05:31:33;;;;;;;;;;;20.50;82.50;;;;;;4982740;28;20377;-83
2022/08/15 05:34:06;;;;;;;;;;;20.50;81.00;;;;;;4980355;28;19948;-85
2022/08/15 05:36:53;;;;;;;;;;;20.50;82.20;;;;;;5026415;28;19925;-86
2022/08/15 05:39:24;;;;;;;;;;;20.50;82.60;;;;;;4984894;28;19992;-86
2022/08/15 05:42:15;;;;;;;;;;;20.60;83.70;;;;;;4991386;28;19929;-86
2022/08/15 05:45:02;;;;;;;;;;;20.60;84.60;;;;;;4979334;28;19929;-85
2022/08/15 05:47:39;;;;;;;;;;;20.60;84.10;;;;;;5004279;28;19933;-85
2022/08/15 05:50:17;;;;;;;;;;;20.60;83.70;;;;;;5015232;28;19926;-86
2022/08/15 05:52:48;;;;;;;;;;;20.60;85.70;;;;;;4982038;28;20477;-87
2022/08/15 05:55:17;;;;;;;;;;;20.60;88.10;;;;;;5002832;28;19932;-84
2022/08/15 05:57:46;;;;;;;;;;;20.70;88.10;;;;;;4999058;28;19925;-87
2022/08/15 06:00:18;;;;;;;;;;;20.70;88.90;;;;;;5011325;28;20377;-85
2022/08/15 06:02:49;;;;;;;;;;;20.60;88.00;;;;;;5004705;28;19925;-84
2022/08/15 06:05:31;;;;;;;;;;;20.80;88.40;;;;;;5009854;28;19932;-84
2022/08/15 06:08:10;;;;;;;;;;;20.80;88.90;;;;;;5020916;28;19929;-86
2022/08/15 06:11:13;;;;;;;;;;;20.80;88.90;;;;;;4992349;28;19925;-85
2022/08/15 06:13:54;;;;;;;;;;;20.80;90.60;;;;;;4973869;28;19930;-85
2022/08/15 06:16:31;;;;;;;;;;;20.90;90.30;;;;;;4999292;28;20282;-84
2022/08/15 06:19:28;;;;;;;;;;;20.90;91.10;;;;;;4984746;28;19936;-83
2022/08/15 06:22:09;;;;;;;;;;;20.90;91.80;;;;;;5001288;28;19925;-84
2022/08/15 06:24:39;;;;;;;;;;;20.80;91.30;;;;;;4991532;28;19952;-85
2022/08/15 06:27:22;;;;;;;;;;;21.00;91.40;;;;;;5024240;28;19929;-84
2022/08/15 06:30:12;;;;;;;;;;;21.10;91.50;;;;;;4971465;28;19933;-84
2022/08/15 06:32:53;;;;;;;;;;;21.10;92.10;;;;;;4984618;28;19946;-85
2022/08/15 06:35:24;;;;;;;;;;;21.10;91.80;;;;;;4985617;28;19937;-85
2022/08/15 06:38:01;;;;;;;;;;;21.20;91.90;;;;;;4992001;28;20415;-84
2022/08/15 06:41:10;;;;;;;;;;;21.10;91.90;;;;;;4989909;28;20405;-84
2022/08/15 06:43:38;;;;;;;;;;;21.10;92.50;;;;;;4977065;28;19929;-85
2022/08/15 06:46:32;;;;;;;;;;;21.10;92.40;;;;;;4977322;28;20305;-84
2022/08/15 06:49:20;;;;;;;;;;;21.10;92.80;;;;;;4950508;28;19922;-87
2022/08/15 06:51:51;;;;;;;;;;;21.00;92.80;;;;;;4987201;28;19929;-84
2022/08/15 06:54:22;;;;;;;;;;;21.00;92.90;;;;;;4984624;28;19936;-88
2022/08/15 06:57:16;;;;;;;;;;;21.00;93.20;;;;;;4976196;28;19925;-86
2022/08/15 07:00:05;;;;;;;;;;;21.00;93.10;;;;;;5024883;28;19936;-84
2022/08/15 07:03:19;;;;;;;;;;;21.00;93.40;;;;;;4982224;28;19926;-84
2022/08/15 07:05:57;;;;;;;;;;;21.00;93.60;;;;;;4989837;28;21489;-83
2022/08/15 07:08:37;;;;;;;;;;;21.10;94.10;;;;;;4971029;28;19929;-81
2022/08/15 07:11:09;;;;;;;;;;;21.20;93.80;;;;;;4972140;28;19932;-85
2022/08/15 07:13:56;;;;;;;;;;;21.30;94.30;;;;;;4987908;28;19930;-84
2022/08/15 07:16:48;;;;;;;;;;;21.40;94.00;;;;;;4968743;28;19933;-83
2022/08/15 07:19:20;;;;;;;;;;;21.40;94.00;;;;;;4972091;28;20413;-84
2022/08/15 07:21:57;;;;;;;;;;;21.50;93.90;;;;;;4989190;28;19930;-84
2022/08/15 07:24:30;;;;;;;;;;;21.60;93.50;;;;;;4989206;28;19930;-85
2022/08/15 07:27:04;;;;;;;;;;;21.80;93.70;;;;;;5015898;28;19933;-84
2022/08/15 07:29:54;;;;;;;;;;;21.90;93.90;;;;;;5013726;28;20275;-84
2022/08/15 07:32:29;;;;;;;;;;;21.90;93.80;;;;;;4969918;28;19937;-84
2022/08/15 07:35:12;;;;;;;;;;;22.00;93.60;;;;;;4975697;28;20388;-84
2022/08/15 07:37:56;;;;;;;;;;;22.00;93.50;;;;;;4970834;28;20415;-85
2022/08/15 07:40:30;;;;;;;;;;;22.10;93.70;;;;;;4988134;28;19925;-83
2022/08/15 07:43:28;;;;;;;;;;;22.10;93.60;;;;;;4990494;28;20993;-85
2022/08/15 07:46:10;;;;;;;;;;;22.20;93.70;;;;;;4989140;28;19925;-83
2022/08/15 07:49:00;;;;;;;;;;;22.30;93.60;;;;;;5009387;28;19926;-82
2022/08/15 07:51:38;;;;;;;;;;;22.40;93.40;;;;;;5022990;28;19936;-84
2022/08/15 07:54:42;;;;;;;;;;;22.50;93.30;;;;;;5011490;28;19936;-83
2022/08/15 07:57:24;;;;;;;;;;;22.70;92.70;;;;;;5001606;28;20025;-83
2022/08/15 08:00:13;;;;;;;;;;;22.90;92.20;;;;;;5013799;28;19933;-84
2022/08/15 08:03:11;;;;;;;;;;;23.10;91.80;;;;;;5014057;28;19925;-81
2022/08/15 08:05:54;;;;;;;;;;;23.30;91.70;;;;;;5002669;28;19933;-84
2022/08/15 08:08:26;;;;;;;;;;;23.50;91.70;;;;;;4990713;28;20293;-85
2022/08/15 08:11:19;;;;;;;;;;;23.70;91.30;;;;;;5006161;28;20300;-88
2022/08/15 08:14:10;;;;;;;;;;;23.90;91.20;;;;;;5014319;28;19926;-85
2022/08/15 08:17:06;;;;;;;;;;;24.00;90.80;;;;;;5023481;28;19936;-84
2022/08/15 08:19:38;;;;;;;;;;;24.20;90.50;;;;;;4994442;28;19930;-85
2022/08/15 08:22:19;;;;;;;;;;;24.30;89.90;;;;;;4980579;28;19933;-84
2022/08/15 08:25:02;;;;;;;;;;;24.40;87.90;;;;;;5020785;28;20409;-85
2022/08/15 08:27:49;;;;;;;;;;;24.50;88.10;;;;;;5025734;28;19937;-84
2022/08/15 08:30:26;;;;;;;;;;;24.50;87.70;;;;;;5017359;28;19926;-82
2022/08/15 08:33:11;;;;;;;;;;;24.60;87.40;;;;;;5014135;28;19928;-84
2022/08/15 08:35:44;;;;;;;;;;;24.70;86.60;;;;;;4994994;28;19933;-85
2022/08/15 08:38:32;;;;;;;;;;;24.80;86.50;;;;;;5010210;28;19933;-85
2022/08/15 08:41:28;;;;;;;;;;;25.00;86.40;;;;;;5010892;28;19926;-84
2022/08/15 08:44:14;;;;;;;;;;;24.90;85.10;;;;;;5005854;28;19926;-85
2022/08/15 08:47:01;;;;;;;;;;;25.00;85.10;;;;;;5006825;28;20324;-83
2022/08/15 08:49:38;;;;;;;;;;;25.10;84.80;;;;;;5006851;28;19926;-82
2022/08/15 08:52:45;;;;;;;;;;;25.10;84.00;;;;;;5004493;28;19932;-82
2022/08/15 08:55:30;;;;;;;;;;;25.20;83.50;;;;;;5003552;28;19930;-83
2022/08/15 08:58:16;;;;;;;;;;;25.20;83.70;;;;;;5003277;28;19940;-83
2022/08/15 09:01:07;;;;;;;;;;;25.30;83.80;;;;;;5005054;28;19961;-84
2022/08/15 09:03:40;;;;;;;;;;;25.40;83.40;;;;;;5004540;28;19932;-84
2022/08/15 09:06:12;;;;;;;;;;;25.50;82.60;;;;;;5004813;28;19944;-83
2022/08/15 09:08:57;;;;;;;;;;;25.50;82.70;;;;;;5004582;28;19934;-85
2022/08/15 09:11:29;;;;;;;;;;;25.60;82.20;;;;;;5007671;28;19961;-85
2022/08/15 09:14:03;;;;;;;;;;;25.60;82.60;;;;;;5007567;28;19952;-84
2022/08/15 09:16:36;;;;;;;;;;;25.60;83.10;;;;;;5006555;28;19930;-84
2022/08/15 09:19:20;;;;;;;;;;;25.80;82.90;;;;;;5009621;28;19925;-86
2022/08/15 09:21:48;;;;;;;;;;;25.90;82.70;;;;;;5007988;28;19925;-86
2022/08/15 09:24:17;;;;;;;;;;;26.00;82.20;;;;;;4989536;28;20389;-84
2022/08/15 09:27:16;;;;;;;;;;;26.00;81.90;;;;;;4991301;28;20374;-84
2022/08/15 09:29:46;;;;;;;;;;;26.10;81.50;;;;;;5026045;28;19936;-87
2022/08/15 09:32:26;;;;;;;;;;;26.30;81.40;;;;;;5010497;28;19925;-88
2022/08/15 09:35:07;;;;;;;;;;;26.20;81.20;;;;;;5008679;28;19939;-86
2022/08/15 09:37:59;;;;;;;;;;;26.20;80.80;;;;;;4995688;28;19926;-85
2022/08/15 09:40:26;;;;;;;;;;;26.30;80.60;;;;;;4981455;28;19945;-85
2022/08/15 09:43:22;;;;;;;;;;;26.40;80.90;;;;;;5004818;28;19936;-84
2022/08/15 09:46:02;;;;;;;;;;;26.50;80.40;;;;;;4977145;28;19950;-83
2022/08/15 09:48:57;;;;;;;;;;;26.70;79.00;;;;;;5008820;28;20394;-88
2022/08/15 09:51:25;;;;;;;;;;;26.90;79.00;;;;;;5005554;28;19934;-84
2022/08/15 09:53:54;;;;;;;;;;;27.00;78.10;;;;;;4986540;28;19941;-87
2022/08/15 09:56:31;;;;;;;;;;;27.00;77.00;;;;;;5005305;28;19932;-84
2022/08/15 09:59:14;;;;;;;;;;;27.00;77.20;;;;;;5020851;28;19930;-84
2022/08/15 10:02:00;;;;;;;;;;;26.90;77.00;;;;;;5020167;28;19940;-83
2022/08/15 10:04:48;;;;;;;;;;;26.90;77.10;;;;;;4988140;28;19940;-82
2022/08/15 10:07:51;;;;;;;;;;;27.00;76.20;;;;;;4988208;28;19929;-86
2022/08/15 10:10:22;;;;;;;;;;;27.10;76.80;;;;;;4961612;28;19926;-83
2022/08/15 10:13:16;;;;;;;;;;;27.20;76.50;;;;;;5003981;28;19933;-84
2022/08/15 10:15:46;;;;;;;;;;;27.40;76.30;;;;;;4978064;28;19929;-83
2022/08/15 10:18:27;;;;;;;;;;;27.60;76.30;;;;;;5023117;28;19952;-82
2022/08/15 10:20:58;;;;;;;;;;;27.70;76.50;;;;;;4988723;28;19925;-84
2022/08/15 10:23:29;;;;;;;;;;;27.80;76.40;;;;;;4987871;28;19926;-86
2022/08/15 10:26:08;;;;;;;;;;;28.00;76.00;;;;;;5004043;28;19945;-85
2022/08/15 10:29:02;;;;;;;;;;;28.00;76.50;;;;;;5000252;28;19925;-84
2022/08/15 10:31:41;;;;;;;;;;;28.20;76.30;;;;;;4970686;28;19925;-86
2022/08/15 10:34:34;;;;;;;;;;;28.20;76.00;;;;;;5004563;28;20318;-84
2022/08/15 10:37:15;;;;;;;;;;;28.40;75.70;;;;;;5005575;28;19926;-87
2022/08/15 10:39:49;;;;;;;;;;;28.50;75.20;;;;;;5001746;28;20063;-83
2022/08/15 10:42:19;;;;;;;;;;;28.50;75.00;;;;;;4986175;28;19933;-84
2022/08/15 10:44:57;;;;;;;;;;;28.70;74.90;;;;;;5017919;28;20407;-83
2022/08/15 10:47:47;;;;;;;;;;;28.70;74.60;;;;;;4985799;28;19929;-84
2022/08/15 10:50:42;;;;;;;;;;;28.80;74.00;;;;;;5003713;28;19933;-84
2022/08/15 10:53:11;;;;;;;;;;;29.00;72.50;;;;;;5001825;28;19926;-86
2022/08/15 10:55:40;;;;;;;;;;;29.10;71.70;;;;;;4989073;28;19960;-85
2022/08/15 10:58:30;;;;;;;;;;;29.20;70.90;;;;;;4990915;28;20405;-86
2022/08/15 11:01:06;;;;;;;;;;;29.30;70.80;;;;;;5001960;28;19926;-87
2022/08/15 11:03:47;;;;;;;;;;;29.50;70.40;;;;;;5003074;28;19944;-86
2022/08/15 11:06:40;;;;;;;;;;;29.70;69.70;;;;;;4985819;28;20626;-85
2022/08/15 11:09:17;;;;;;;;;;;30.30;69.10;;;;;;5019806;28;19932;-87
2022/08/15 11:11:53;;;;;;;;;;;30.00;69.10;;;;;;4987664;28;19925;-85
2022/08/15 11:14:37;;;;;;;;;;;30.10;69.10;;;;;;5005679;28;19933;-84
2022/08/15 11:17:12;;;;;;;;;;;30.20;69.30;;;;;;5007764;28;19929;-87
2022/08/15 11:19:49;;;;;;;;;;;30.10;67.80;;;;;;4986470;28;19937;-89
2022/08/15 11:22:46;;;;;;;;;;;30.10;67.90;;;;;;5010048;28;19932;-87
2022/08/15 11:25:17;;;;;;;;;;;30.00;68.10;;;;;;5010695;28;20046;-88
2022/08/15 11:27:57;;;;;;;;;;;30.00;68.30;;;;;;4995509;28;19933;-86
2022/08/15 11:30:25;;;;;;;;;;;29.90;68.50;;;;;;5010826;28;19926;-88
2022/08/15 11:33:17;;;;;;;;;;;29.90;68.30;;;;;;5013716;28;19929;-87
2022/08/15 11:35:50;;;;;;;;;;;29.90;68.10;;;;;;5001176;28;19926;-88
2022/08/15 11:38:17;;;;;;;;;;;29.90;68.00;;;;;;4996103;28;19929;-88
2022/08/15 11:40:52;;;;;;;;;;;29.80;67.40;;;;;;4988448;28;20717;-85
2022/08/15 11:43:21;;;;;;;;;;;29.80;67.40;;;;;;4999721;28;19933;-85
2022/08/15 11:45:51;;;;;;;;;;;29.70;67.30;;;;;;5004296;28;19939;-86
2022/08/15 11:48:20;;;;;;;;;;;29.70;67.60;;;;;;5001780;28;19941;-88
2022/08/15 11:50:56;;;;;;;;;;;29.80;66.90;;;;;;5019938;28;19934;-86
2022/08/15 11:53:27;;;;;;;;;;;29.80;66.70;;;;;;4993436;28;19929;-86
2022/08/15 11:55:54;;;;;;;;;;;29.90;67.40;;;;;;5024917;28;19925;-86
2022/08/15 11:58:28;;;;;;;;;;;29.80;68.00;;;;;;4994962;28;19956;-87
2022/08/15 12:00:58;;;;;;;;;;;29.90;68.40;;;;;;4979992;28;20496;-89
2022/08/15 12:03:36;;;;;;;;;;;29.80;68.20;;;;;;5020831;28;19940;-89
2022/08/15 12:06:42;;;;;;;;;;;29.80;69.60;;;;;;5021083;28;19930;-85
2022/08/15 12:09:22;;;;;;;;;;;29.90;69.00;;;;;;5020860;28;19926;-86
2022/08/15 12:12:24;;;;;;;;;;;30.00;68.30;;;;;;5019423;28;19926;-85
2022/08/15 12:14:55;;;;;;;;;;;30.20;68.40;;;;;;5010802;28;19956;-86
2022/08/15 12:17:25;;;;;;;;;;;30.30;67.80;;;;;;5028526;28;19934;-86
2022/08/15 12:20:15;;;;;;;;;;;30.30;67.90;;;;;;5029512;28;19937;-85
2022/08/15 12:23:16;;;;;;;;;;;30.30;67.80;;;;;;4996726;28;19940;-85
2022/08/15 12:25:44;;;;;;;;;;;30.30;67.60;;;;;;4994889;28;19930;-85
2022/08/15 12:28:22;;;;;;;;;;;30.30;67.50;;;;;;4977173;28;20372;-86
2022/08/15 12:31:11;;;;;;;;;;;30.40;67.30;;;;;;5015178;28;19940;-87
2022/08/15 12:33:44;;;;;;;;;;;30.40;67.30;;;;;;5009894;28;19933;-86
2022/08/15 12:36:19;;;;;;;;;;;30.50;67.40;;;;;;5018662;28;19933;-86
2022/08/15 12:39:07;;;;;;;;;;;30.60;67.10;;;;;;5007890;28;19945;-87
2022/08/15 12:41:39;;;;;;;;;;;30.60;66.80;;;;;;5008153;28;19926;-87
2022/08/15 12:44:28;;;;;;;;;;;30.60;66.40;;;;;;4973186;28;20288;-87
2022/08/15 12:46:57;;;;;;;;;;;30.60;66.30;;;;;;4993549;28;19952;-88
2022/08/15 12:49:25;;;;;;;;;;;30.60;66.80;;;;;;5002930;28;19940;-86
2022/08/15 12:51:53;;;;;;;;;;;30.60;66.30;;;;;;5005673;28;19934;-86
2022/08/15 12:54:23;;;;;;;;;;;30.70;66.50;;;;;;4973803;28;20105;-86
2022/08/15 12:56:54;;;;;;;;;;;30.80;66.30;;;;;;5006723;28;19934;-86
2022/08/15 12:59:42;;;;;;;;;;;30.70;66.20;;;;;;5001437;28;20642;-86
2022/08/15 13:02:11;;;;;;;;;;;30.70;66.40;;;;;;5004203;28;19968;-86
2022/08/15 13:05:00;;;;;;;;;;;30.60;66.00;;;;;;4974283;28;19975;-86
2022/08/15 13:07:28;;;;;;;;;;;30.70;65.60;;;;;;5007183;28;19930;-88
2022/08/15 13:09:59;;;;;;;;;;;30.90;65.50;;;;;;4990284;28;20009;-86
2022/08/15 13:12:46;;;;;;;;;;;31.00;65.00;;;;;;4978631;28;19941;-85
2022/08/15 13:15:14;;;;;;;;;;;31.10;64.10;;;;;;5012240;28;19929;-85
2022/08/15 13:17:42;;;;;;;;;;;31.20;64.00;;;;;;5031537;28;19932;-89
2022/08/15 13:26:21;;;;;;;;;;;30.90;62.90;;;;;;4992014;28;20014;-86
2022/08/15 13:28:59;;;;;;;;;;;30.70;62.80;;;;;;5010277;28;19934;-86
2022/08/15 13:31:28;;;;;;;;;;;30.60;63.10;;;;;;4994887;28;19934;-84
2022/08/15 13:33:59;;;;;;;;;;;30.40;63.00;;;;;;4974702;28;19933;-84
2022/08/15 13:36:28;;;;;;;;;;;30.20;62.90;;;;;;5011599;28;19939;-86
2022/08/15 13:39:03;;;;;;;;;;;30.10;61.90;;;;;;5007143;28;20384;-84
2022/08/15 13:41:40;;;;;;;;;;;29.90;60.30;;;;;;5004172;28;19952;-85
2022/08/15 13:44:16;;;;;;;;;;;29.70;60.20;;;;;;4989173;28;19945;-83
2022/08/15 13:46:59;;;;;;;;;;;29.50;61.00;;;;;;5007186;28;19941;-85
2022/08/15 13:49:29;;;;;;;;;;;29.30;61.20;;;;;;5008888;28;20317;-84
2022/08/15 13:51:58;;;;;;;;;;;29.30;60.90;;;;;;4987990;28;20297;-85
2022/08/15 13:54:46;;;;;;;;;;;29.10;60.80;;;;;;4990928;28;19934;-85
2022/08/15 13:57:18;;;;;;;;;;;29.10;61.30;;;;;;5009180;28;19929;-86
2022/08/15 13:59:52;;;;;;;;;;;29.10;61.10;;;;;;4985833;28;19937;-84
2022/08/15 14:02:27;;;;;;;;;;;29.10;60.90;;;;;;5004470;28;20416;-85
2022/08/15 14:05:08;;;;;;;;;;;29.10;61.00;;;;;;5021137;28;19929;-85
2022/08/15 14:07:36;;;;;;;;;;;29.10;60.90;;;;;;5021144;28;20090;-85
2022/08/15 14:10:25;;;;;;;;;;;29.10;60.80;;;;;;4986692;28;19933;-84
2022/08/15 14:13:14;;;;;;;;;;;29.10;61.20;;;;;;5018106;28;20374;-86
2022/08/15 14:15:50;;;;;;;;;;;29.20;61.00;;;;;;5002010;28;19933;-83
2022/08/15 14:18:40;;;;;;;;;;;29.30;60.60;;;;;;5002955;28;19933;-83
2022/08/15 14:21:23;;;;;;;;;;;29.30;60.20;;;;;;5018455;28;19930;-84
2022/08/15 14:23:56;;;;;;;;;;;29.40;60.00;;;;;;4989056;28;19936;-85
2022/08/15 14:26:25;;;;;;;;;;;29.50;60.60;;;;;;5002104;28;20409;-84
2022/08/15 14:29:22;;;;;;;;;;;29.80;60.60;;;;;;5003936;28;19925;-86
2022/08/15 14:32:12;;;;;;;;;;;30.10;60.50;;;;;;5001942;28;19939;-85
2022/08/15 14:35:01;;;;;;;;;;;30.30;60.70;;;;;;4977761;28;19949;-85
2022/08/15 14:37:39;;;;;;;;;;;30.40;60.00;;;;;;5006767;28;19940;-86
2022/08/15 14:40:15;;;;;;;;;;;30.50;58.90;;;;;;4987366;28;19942;-87
2022/08/15 14:42:47;;;;;;;;;;;30.80;58.70;;;;;;4972491;28;19925;-85
2022/08/15 14:45:17;;;;;;;;;;;31.10;58.00;;;;;;4992482;28;19930;-85
2022/08/15 14:47:49;;;;;;;;;;;31.40;57.40;;;;;;4969787;28;19929;-86
2022/08/15 14:50:20;;;;;;;;;;;31.50;57.60;;;;;;4989635;28;19934;-86
2022/08/15 14:53:11;;;;;;;;;;;31.60;57.50;;;;;;4976654;28;20069;-87
2022/08/15 14:55:42;;;;;;;;;;;31.50;57.50;;;;;;4998313;28;21449;-85
2022/08/15 14:58:14;;;;;;;;;;;31.40;57.80;;;;;;4988889;28;19929;-84
2022/08/15 15:01:02;;;;;;;;;;;31.50;58.20;;;;;;4953930;28;19929;-84
2022/08/15 15:03:52;;;;;;;;;;;31.70;58.40;;;;;;4994315;28;19930;-84
2022/08/15 15:06:24;;;;;;;;;;;31.80;58.40;;;;;;5005166;28;21454;-84
2022/08/15 15:08:56;;;;;;;;;;;32.10;58.10;;;;;;4977287;28;20134;-85
2022/08/15 15:11:27;;;;;;;;;;;32.50;57.80;;;;;;4992660;28;19930;-85
2022/08/15 15:13:54;;;;;;;;;;;33.00;57.40;;;;;;4990841;28;19930;-85
2022/08/15 15:16:23;;;;;;;;;;;33.20;57.60;;;;;;4990146;28;19933;-84
2022/08/15 15:19:10;;;;;;;;;;;33.50;57.20;;;;;;4991217;28;19933;-85
2022/08/15 15:21:38;;;;;;;;;;;33.50;56.70;;;;;;4990796;28;19930;-85
2022/08/15 15:24:06;;;;;;;;;;;33.50;56.50;;;;;;5007684;28;19933;-84
2022/08/15 15:26:41;;;;;;;;;;;33.50;56.60;;;;;;5011621;28;19934;-84